createdAt,value
2018-08-12T00:00:28.880Z,15.00
2018-08-12T00:02:58.576Z,15.00
2018-08-12T00:05:27.100Z,14.90
2018-08-12T00:07:55.805Z,15.00
2018-08-12T00:10:25.110Z,15.20
2018-08-12T00:12:53.683Z,15.10
2018-08-12T00:15:22.888Z,15.10
2018-08-12T00:17:51.333Z,15.20
2018-08-12T00:20:21.386Z,15.10
2018-08-12T00:22:49.936Z,14.90
2018-08-12T00:25:23.481Z,15.00
2018-08-12T00:27:51.967Z,14.80
2018-08-12T00:30:20.866Z,14.80
2018-08-12T00:32:49.332Z,14.80
2018-08-12T00:35:18.815Z,15.00
2018-08-12T00:37:47.288Z,15.00
2018-08-12T00:40:16.700Z,14.80
2018-08-12T00:42:45.695Z,14.50
2018-08-12T00:45:18.058Z,14.30
2018-08-12T00:47:46.982Z,14.20
2018-08-12T00:50:16.274Z,14.00
2018-08-12T00:52:44.739Z,13.90
2018-08-12T00:55:14.909Z,13.80
2018-08-12T00:57:44.354Z,13.80
2018-08-12T01:00:16.010Z,13.90
2018-08-12T01:02:44.480Z,14.30
2018-08-12T01:05:14.531Z,14.60
2018-08-12T01:07:43.550Z,14.90
2018-08-12T01:10:12.590Z,14.70
2018-08-12T01:12:41.128Z,14.60
2018-08-12T01:15:11.948Z,14.40
2018-08-12T01:17:40.542Z,14.30
2018-08-12T01:20:10.615Z,14.10
2018-08-12T01:22:40.197Z,14.10
2018-08-12T01:25:09.514Z,14.00
2018-08-12T01:27:38.009Z,14.00
2018-08-12T01:30:09.208Z,13.90
2018-08-12T01:32:37.714Z,13.90
2018-08-12T01:35:07.168Z,14.00
2018-08-12T01:37:35.618Z,13.90
2018-08-12T01:40:04.953Z,13.90
2018-08-12T01:42:33.365Z,13.80
2018-08-12T01:45:01.834Z,13.80
2018-08-12T01:47:30.288Z,13.70
2018-08-12T01:49:58.768Z,13.70
2018-08-12T01:52:27.626Z,13.70
2018-08-12T01:54:56.236Z,13.70
2018-08-12T01:57:24.744Z,13.50
2018-08-12T01:59:53.245Z,13.60
2018-08-12T02:02:21.940Z,13.40
2018-08-12T02:04:53.577Z,13.40
2018-08-12T02:07:22.070Z,13.40
2018-08-12T02:09:50.573Z,13.30
2018-08-12T02:12:18.994Z,13.20
2018-08-12T02:14:47.467Z,13.20
2018-08-12T02:17:15.962Z,13.10
2018-08-12T02:19:44.426Z,13.10
2018-08-12T02:22:12.964Z,13.10
2018-08-12T02:24:41.449Z,13.10
2018-08-12T02:27:09.983Z,13.10
2018-08-12T02:29:38.461Z,13.20
2018-08-12T02:32:06.931Z,13.20
2018-08-12T02:34:35.416Z,13.20
2018-08-12T02:37:03.941Z,13.20
2018-08-12T02:39:32.468Z,13.10
2018-08-12T02:42:00.894Z,13.00
2018-08-12T02:44:29.334Z,13.00
2018-08-12T02:46:57.802Z,12.90
2018-08-12T02:49:26.285Z,13.00
2018-08-12T02:51:54.772Z,13.00
2018-08-12T02:54:23.213Z,13.00
2018-08-12T02:56:51.701Z,13.10
2018-08-12T02:59:20.465Z,13.10
2018-08-12T03:01:48.923Z,13.10
2018-08-12T03:04:17.347Z,13.10
2018-08-12T03:06:45.782Z,13.00
2018-08-12T03:09:14.277Z,12.90
2018-08-12T03:11:42.926Z,13.00
2018-08-12T03:14:11.386Z,12.90
2018-08-12T03:16:40.117Z,12.90
2018-08-12T03:19:08.637Z,12.90
2018-08-12T03:21:37.037Z,12.90
2018-08-12T03:24:05.528Z,12.90
2018-08-12T03:26:33.926Z,12.90
2018-08-12T03:29:02.372Z,12.70
2018-08-12T03:31:30.892Z,12.70
2018-08-12T03:33:59.378Z,12.60
2018-08-12T03:36:27.842Z,12.60
2018-08-12T03:38:56.257Z,12.50
2018-08-12T03:41:24.733Z,12.60
2018-08-12T03:43:53.241Z,12.60
2018-08-12T03:46:21.648Z,12.60
2018-08-12T03:48:50.202Z,12.60
2018-08-12T03:51:18.601Z,12.60
2018-08-12T03:53:47.132Z,12.60
2018-08-12T03:56:15.594Z,12.70
2018-08-12T03:58:44.039Z,12.60
2018-08-12T04:01:12.473Z,12.60
2018-08-12T04:03:40.995Z,12.70
2018-08-12T04:06:09.475Z,12.60
2018-08-12T04:08:37.960Z,12.60
2018-08-12T04:11:06.454Z,12.60
2018-08-12T04:13:34.949Z,12.50
2018-08-12T04:16:03.446Z,12.60
2018-08-12T04:18:31.992Z,12.60
2018-08-12T04:21:00.523Z,12.50
2018-08-12T04:23:28.966Z,12.50
2018-08-12T04:25:57.537Z,12.40
2018-08-12T04:28:25.969Z,12.40
2018-08-12T04:30:54.376Z,12.40
2018-08-12T04:33:22.817Z,12.40
2018-08-12T04:35:51.267Z,12.50
2018-08-12T04:38:19.747Z,12.50
2018-08-12T04:40:48.145Z,12.50
2018-08-12T04:43:16.532Z,12.60
2018-08-12T04:45:44.965Z,12.60
2018-08-12T04:48:13.671Z,12.60
2018-08-12T04:50:42.169Z,12.70
2018-08-12T04:53:17.136Z,12.60
2018-08-12T04:55:45.561Z,12.70
2018-08-12T04:58:14.063Z,12.80
2018-08-12T05:00:42.515Z,12.90
2018-08-12T05:03:11.089Z,13.10
2018-08-12T05:05:40.441Z,13.20
2018-08-12T05:08:09.082Z,13.30
2018-08-12T05:10:37.521Z,13.30
2018-08-12T05:13:06.349Z,13.50
2018-08-12T05:15:35.524Z,13.50
2018-08-12T05:18:03.967Z,13.60
2018-08-12T05:20:32.390Z,13.50
2018-08-12T05:23:00.923Z,13.80
2018-08-12T05:25:29.400Z,14.00
2018-08-12T05:27:57.846Z,14.10
2018-08-12T05:30:26.255Z,14.30
2018-08-12T05:32:54.688Z,14.50
2018-08-12T05:35:23.178Z,14.50
2018-08-12T05:37:51.633Z,14.80
2018-08-12T05:40:20.092Z,15.00
2018-08-12T05:42:48.608Z,15.10
2018-08-12T05:45:17.074Z,15.30
2018-08-12T05:47:45.575Z,15.00
2018-08-12T05:50:14.008Z,14.90
2018-08-12T05:52:42.572Z,14.80
2018-08-12T05:55:11.040Z,15.20
2018-08-12T05:57:39.713Z,16.00
2018-08-12T06:00:10.722Z,16.70
2018-08-12T06:02:39.203Z,17.20
2018-08-12T06:05:08.028Z,17.90
2018-08-12T06:07:36.523Z,18.60
2018-08-12T06:10:06.262Z,19.00
2018-08-12T06:12:34.781Z,19.00
2018-08-12T06:15:03.326Z,18.80
2018-08-12T06:17:31.856Z,18.90
2018-08-12T06:20:00.358Z,19.50
2018-08-12T06:22:28.831Z,20.00
2018-08-12T06:24:57.469Z,20.40
2018-08-12T06:27:25.913Z,20.10
2018-08-12T06:29:54.494Z,19.60
2018-08-12T06:32:23.060Z,19.90
2018-08-12T06:34:51.782Z,20.40
2018-08-12T06:37:20.200Z,20.80
2018-08-12T06:39:48.634Z,20.90
2018-08-12T06:42:17.093Z,20.70
2018-08-12T06:44:45.656Z,20.40
2018-08-12T06:47:14.106Z,21.30
2018-08-12T06:49:42.587Z,21.10
2018-08-12T06:52:11.024Z,21.90
2018-08-12T06:54:39.583Z,22.40
2018-08-12T06:57:08.107Z,22.80
2018-08-12T06:59:36.638Z,23.00
2018-08-12T07:02:05.167Z,22.70
2018-08-12T07:04:33.776Z,22.60
2018-08-12T07:07:02.298Z,22.60
2018-08-12T07:09:30.862Z,22.80
2018-08-12T07:11:59.428Z,22.50
2018-08-12T07:14:27.972Z,23.10
2018-08-12T07:16:56.426Z,23.40
2018-08-12T07:19:24.894Z,24.20
2018-08-12T07:21:53.556Z,22.70
2018-08-12T07:24:22.012Z,22.90
2018-08-12T07:26:50.492Z,23.50
2018-08-12T07:29:18.915Z,24.00
2018-08-12T07:31:47.388Z,24.30
2018-08-12T07:34:15.858Z,25.30
2018-08-12T07:36:44.332Z,25.90
2018-08-12T07:39:12.783Z,26.00
2018-08-12T07:41:41.339Z,26.40
2018-08-12T07:44:09.944Z,26.70
2018-08-12T07:46:38.413Z,27.10
2018-08-12T07:49:06.986Z,27.30
2018-08-12T07:51:36.033Z,27.40
2018-08-12T07:54:04.810Z,27.50
2018-08-12T07:56:33.589Z,27.90
2018-08-12T07:59:02.039Z,27.50
2018-08-12T08:01:30.521Z,27.60
2018-08-12T08:03:59.068Z,26.30
2018-08-12T08:06:27.575Z,26.80
2018-08-12T08:08:56.466Z,26.80
2018-08-12T08:11:25.021Z,26.10
2018-08-12T08:13:53.451Z,25.90
2018-08-12T08:16:22.001Z,26.40
2018-08-12T08:18:50.470Z,26.00
2018-08-12T08:21:19.113Z,25.80
2018-08-12T08:23:47.645Z,25.60
2018-08-12T08:26:16.138Z,25.60
2018-08-12T08:28:44.580Z,25.80
2018-08-12T08:31:13.226Z,25.50
2018-08-12T08:33:41.874Z,25.30
2018-08-12T08:36:10.473Z,25.60
2018-08-12T08:38:38.957Z,26.60
2018-08-12T08:41:07.439Z,26.90
2018-08-12T08:43:35.986Z,26.30
2018-08-12T08:46:04.501Z,26.10
2018-08-12T08:48:32.974Z,26.30
2018-08-12T08:51:01.459Z,26.40
2018-08-12T08:53:29.946Z,27.10
2018-08-12T08:55:58.485Z,28.10
2018-08-12T08:58:26.862Z,27.40
2018-08-12T09:00:55.391Z,27.60
2018-08-12T09:03:23.915Z,28.30
2018-08-12T09:05:52.422Z,28.20
2018-08-12T09:08:21.080Z,27.90
2018-08-12T09:10:49.467Z,27.60
2018-08-12T09:13:17.979Z,27.20
2018-08-12T09:15:46.421Z,27.60
2018-08-12T09:18:14.940Z,28.30
2018-08-12T09:20:43.368Z,27.80
2018-08-12T09:23:11.945Z,27.20
2018-08-12T09:25:40.435Z,27.00
2018-08-12T09:28:09.079Z,27.30
2018-08-12T09:30:37.566Z,27.80
2018-08-12T09:33:06.059Z,27.90
2018-08-12T09:35:34.521Z,27.60
2018-08-12T09:38:03.027Z,27.80
2018-08-12T09:40:31.534Z,27.50
2018-08-12T09:43:00.160Z,28.40
2018-08-12T09:45:28.853Z,28.90
2018-08-12T09:47:57.395Z,29.50
2018-08-12T09:50:25.943Z,29.60
2018-08-12T09:52:54.825Z,30.40
2018-08-12T09:55:23.308Z,29.40
2018-08-12T09:57:51.761Z,28.70
2018-08-12T10:00:25.699Z,28.90
2018-08-12T10:02:55.176Z,29.30
2018-08-12T10:05:23.785Z,28.50
2018-08-12T10:07:52.302Z,29.60
2018-08-12T10:10:20.802Z,29.70
2018-08-12T10:12:49.283Z,29.90
2018-08-12T10:15:18.063Z,29.40
2018-08-12T10:17:50.162Z,29.30
2018-08-12T10:20:18.695Z,29.70
2018-08-12T10:22:47.261Z,30.70
2018-08-12T10:25:15.764Z,31.10
2018-08-12T10:27:45.433Z,31.40
2018-08-12T10:30:14.715Z,32.60
2018-08-12T10:32:43.195Z,33.00
2018-08-12T10:35:14.215Z,32.40
2018-08-12T10:37:43.364Z,32.20
2018-08-12T10:40:15.608Z,33.20
2018-08-12T10:42:45.030Z,30.40
2018-08-12T10:45:13.792Z,29.70
2018-08-12T10:47:42.990Z,29.80
2018-08-12T10:50:13.799Z,30.40
2018-08-12T10:52:43.673Z,32.00
2018-08-12T10:55:13.434Z,33.50
2018-08-12T10:57:42.132Z,34.50
2018-08-12T11:00:16.472Z,34.00
2018-08-12T11:02:45.544Z,32.60
2018-08-12T11:05:15.190Z,32.40
2018-08-12T11:07:44.565Z,31.50
2018-08-12T11:10:13.636Z,29.90
2018-08-12T11:12:42.734Z,31.50
2018-08-12T11:15:11.323Z,30.10
2018-08-12T11:17:40.756Z,30.70
2018-08-12T11:20:10.057Z,32.70
2018-08-12T11:22:38.752Z,33.70
2018-08-12T11:25:08.871Z,33.50
2018-08-12T11:27:37.452Z,32.00
2018-08-12T11:30:09.126Z,31.40
2018-08-12T11:32:37.975Z,31.80
2018-08-12T11:35:07.725Z,31.20
2018-08-12T11:37:36.230Z,32.20
2018-08-12T11:40:05.908Z,32.30
2018-08-12T11:42:34.480Z,32.00
2018-08-12T11:45:03.150Z,31.20
2018-08-12T11:47:31.659Z,31.20
2018-08-12T11:50:00.199Z,32.80
2018-08-12T11:52:28.737Z,34.10
2018-08-12T11:54:57.146Z,33.40
2018-08-12T11:57:25.606Z,34.20
2018-08-12T11:59:54.013Z,34.90
2018-08-12T12:02:22.646Z,34.30
2018-08-12T12:04:51.389Z,34.00
2018-08-12T12:07:19.956Z,35.40
2018-08-12T12:09:48.599Z,33.00
2018-08-12T12:12:17.160Z,29.10
2018-08-12T12:14:45.746Z,30.80
2018-08-12T12:17:14.169Z,33.70
2018-08-12T12:19:42.805Z,34.70
2018-08-12T12:22:11.406Z,34.10
2018-08-12T12:24:39.963Z,34.90
2018-08-12T12:27:08.453Z,35.30
2018-08-12T12:29:36.958Z,34.30
2018-08-12T12:32:05.529Z,34.90
2018-08-12T12:34:33.957Z,32.20
2018-08-12T12:37:02.460Z,33.60
2018-08-12T12:39:30.975Z,35.30
2018-08-12T12:41:59.495Z,34.10
2018-08-12T12:44:28.063Z,35.50
2018-08-12T12:46:56.622Z,33.60
2018-08-12T12:49:25.171Z,32.20
2018-08-12T12:51:53.724Z,31.50
2018-08-12T12:54:22.172Z,33.50
2018-08-12T12:56:50.679Z,32.60
2018-08-12T12:59:19.105Z,33.40
2018-08-12T13:01:47.623Z,32.80
2018-08-12T13:04:16.085Z,31.80
2018-08-12T13:06:44.660Z,31.30
2018-08-12T13:09:13.860Z,32.50
2018-08-12T13:11:42.401Z,34.50
2018-08-12T13:14:10.947Z,35.40
2018-08-12T13:16:39.518Z,36.10
2018-08-12T13:19:08.064Z,36.80
2018-08-12T13:21:36.586Z,35.80
2018-08-12T13:24:05.148Z,33.90
2018-08-12T13:26:33.752Z,33.70
2018-08-12T13:29:02.387Z,34.80
2018-08-12T13:31:33.619Z,36.10
2018-08-12T13:34:02.236Z,34.40
2018-08-12T13:36:30.856Z,32.80
2018-08-12T13:39:00.083Z,34.10
2018-08-12T13:41:28.557Z,34.50
2018-08-12T13:43:57.054Z,34.40
2018-08-12T13:46:25.519Z,32.90
2018-08-12T13:48:54.602Z,32.70
2018-08-12T13:51:23.148Z,33.10
2018-08-12T13:53:51.693Z,31.70
2018-08-12T13:56:20.227Z,33.40
2018-08-12T13:58:48.774Z,33.50
2018-08-12T14:01:17.391Z,33.30
2018-08-12T14:03:45.896Z,34.20
2018-08-12T14:06:14.318Z,33.60
2018-08-12T14:08:42.825Z,34.20
2018-08-12T14:11:11.279Z,34.40
2018-08-12T14:13:39.867Z,33.00
2018-08-12T14:16:08.253Z,33.10
2018-08-12T14:18:36.815Z,34.10
2018-08-12T14:21:05.500Z,32.70
2018-08-12T14:23:33.968Z,31.70
2018-08-12T14:26:02.465Z,30.50
2018-08-12T14:28:30.995Z,30.50
2018-08-12T14:30:59.581Z,30.50
2018-08-12T14:33:28.083Z,30.40
2018-08-12T14:35:56.597Z,29.60
2018-08-12T14:38:25.055Z,29.50
2018-08-12T14:40:53.678Z,29.30
2018-08-12T14:43:22.192Z,29.50
2018-08-12T14:45:50.604Z,29.60
2018-08-12T14:48:19.122Z,29.60
2018-08-12T14:50:47.668Z,29.80
2018-08-12T14:53:16.246Z,29.60
2018-08-12T14:55:44.760Z,29.10
2018-08-12T14:58:13.333Z,29.40
2018-08-12T15:00:41.840Z,29.10
2018-08-12T15:03:10.302Z,29.20
2018-08-12T15:05:38.826Z,29.20
2018-08-12T15:08:07.302Z,29.30
2018-08-12T15:10:35.981Z,29.50
2018-08-12T15:13:04.622Z,29.70
2018-08-12T15:15:33.148Z,29.70
2018-08-12T15:18:01.675Z,29.80
2018-08-12T15:20:30.137Z,29.80
2018-08-12T15:22:58.694Z,30.00
2018-08-12T15:25:27.132Z,30.00
2018-08-12T15:27:55.783Z,29.90
2018-08-12T15:30:24.215Z,29.90
2018-08-12T15:32:52.781Z,29.90
2018-08-12T15:35:21.397Z,29.50
2018-08-12T15:37:49.941Z,29.60
2018-08-12T15:40:18.531Z,29.80
2018-08-12T15:42:47.066Z,30.00
2018-08-12T15:45:17.408Z,30.10
2018-08-12T15:47:46.410Z,30.20
2018-08-12T15:50:15.129Z,30.00
2018-08-12T15:52:44.990Z,30.00
2018-08-12T15:55:13.717Z,29.90
2018-08-12T15:57:42.236Z,30.00
2018-08-12T16:00:17.983Z,29.60
2018-08-12T16:02:46.794Z,29.20
2018-08-12T16:05:15.465Z,29.30
2018-08-12T16:07:45.031Z,29.10
2018-08-12T16:10:16.562Z,29.30
2018-08-12T16:12:45.868Z,29.60
2018-08-12T16:15:14.348Z,29.60
2018-08-12T16:17:43.159Z,29.90
2018-08-12T16:20:12.333Z,29.70
2018-08-12T16:22:40.905Z,29.80
2018-08-12T16:25:12.035Z,30.00
2018-08-12T16:27:40.860Z,30.00
2018-08-12T16:30:10.531Z,30.00
2018-08-12T16:32:39.053Z,30.00
2018-08-12T16:35:09.051Z,30.00
2018-08-12T16:37:37.525Z,30.10
2018-08-12T16:40:07.540Z,30.10
2018-08-12T16:42:36.062Z,30.00
2018-08-12T16:45:04.915Z,30.00
2018-08-12T16:47:33.450Z,30.10
2018-08-12T16:50:02.106Z,30.10
2018-08-12T16:52:30.653Z,30.00
2018-08-12T16:54:59.154Z,30.00
2018-08-12T16:57:27.639Z,30.00
2018-08-12T16:59:56.201Z,29.60
2018-08-12T17:02:24.680Z,29.50
2018-08-12T17:04:53.221Z,29.50
2018-08-12T17:07:21.793Z,29.60
2018-08-12T17:09:50.393Z,29.50
2018-08-12T17:12:26.343Z,29.60
2018-08-12T17:14:54.881Z,29.50
2018-08-12T17:17:23.410Z,29.20
2018-08-12T17:19:51.857Z,29.20
2018-08-12T17:22:20.451Z,29.20
2018-08-12T17:24:48.904Z,29.10
2018-08-12T17:27:17.491Z,29.10
2018-08-12T17:29:46.065Z,28.90
2018-08-12T17:32:14.656Z,29.00
2018-08-12T17:34:43.168Z,28.90
2018-08-12T17:37:11.719Z,28.90
2018-08-12T17:39:40.265Z,29.00
2018-08-12T17:42:08.758Z,29.10
2018-08-12T17:44:37.258Z,29.00
2018-08-12T17:47:05.849Z,28.60
2018-08-12T17:49:34.689Z,28.60
2018-08-12T17:52:03.190Z,28.20
2018-08-12T17:54:31.818Z,27.90
2018-08-12T17:57:00.400Z,27.80
2018-08-12T17:59:28.954Z,27.70
2018-08-12T18:01:57.462Z,27.60
2018-08-12T18:04:26.009Z,27.40
2018-08-12T18:06:54.561Z,27.10
2018-08-12T18:09:23.046Z,27.00
2018-08-12T18:11:51.545Z,26.80
2018-08-12T18:14:20.080Z,26.70
2018-08-12T18:16:48.624Z,26.60
2018-08-12T18:19:17.133Z,26.50
2018-08-12T18:21:45.660Z,26.50
2018-08-12T18:24:14.172Z,26.40
2018-08-12T18:26:42.721Z,26.30
2018-08-12T18:29:11.203Z,26.20
2018-08-12T18:31:39.852Z,26.10
2018-08-12T18:34:08.453Z,26.00
2018-08-12T18:36:37.018Z,25.90
2018-08-12T18:39:08.258Z,25.80
2018-08-12T18:41:36.917Z,25.70
2018-08-12T18:44:05.500Z,25.50
2018-08-12T18:46:33.971Z,25.40
2018-08-12T18:49:02.668Z,25.30
2018-08-12T18:51:37.654Z,25.20
2018-08-12T18:54:06.215Z,25.00
2018-08-12T18:56:34.714Z,25.00
2018-08-12T18:59:03.288Z,24.80
2018-08-12T19:01:31.753Z,24.80
2018-08-12T19:04:00.849Z,24.90
2018-08-12T19:06:29.484Z,24.90
2018-08-12T19:08:58.032Z,24.80
2018-08-12T19:11:26.782Z,24.70
2018-08-12T19:13:55.493Z,24.60
2018-08-12T19:16:24.026Z,24.60
2018-08-12T19:18:52.541Z,24.50
2018-08-12T19:21:21.057Z,24.30
2018-08-12T19:23:49.552Z,24.20
2018-08-12T19:26:18.030Z,24.10
2018-08-12T19:28:46.635Z,24.00
2018-08-12T19:31:15.139Z,23.90
2018-08-12T19:33:43.773Z,23.80
2018-08-12T19:36:12.319Z,23.70
2018-08-12T19:38:40.805Z,23.70
2018-08-12T19:41:09.391Z,23.50
2018-08-12T19:43:38.113Z,23.50
2018-08-12T19:46:06.829Z,23.40
2018-08-12T19:48:35.653Z,23.30
2018-08-12T19:51:04.130Z,23.20
2018-08-12T19:53:34.230Z,23.10
2018-08-12T19:56:02.947Z,23.10
2018-08-12T19:58:31.623Z,23.00
2018-08-12T20:01:00.149Z,22.90
2018-08-12T20:03:29.407Z,22.90
2018-08-12T20:05:58.007Z,22.80
2018-08-12T20:08:26.679Z,22.80
2018-08-12T20:10:55.268Z,22.80
2018-08-12T20:13:23.832Z,22.70
2018-08-12T20:15:52.457Z,22.70
2018-08-12T20:18:21.043Z,22.70
2018-08-12T20:20:49.678Z,22.70
2018-08-12T20:23:18.187Z,22.60
2018-08-12T20:25:46.669Z,22.60
2018-08-12T20:28:15.233Z,22.50
2018-08-12T20:30:43.860Z,22.40
2018-08-12T20:33:12.427Z,22.40
2018-08-12T20:35:47.399Z,22.30
2018-08-12T20:38:15.894Z,22.30
2018-08-12T20:40:44.660Z,22.20
2018-08-12T20:43:13.200Z,22.20
2018-08-12T20:45:41.776Z,22.10
2018-08-12T20:48:10.356Z,22.10
2018-08-12T20:50:38.927Z,22.00
2018-08-12T20:53:07.445Z,22.00
2018-08-12T20:55:36.660Z,22.00
2018-08-12T20:58:05.350Z,21.90
2018-08-12T21:00:33.896Z,21.90
2018-08-12T21:03:02.355Z,21.90
2018-08-12T21:05:30.925Z,21.80
2018-08-12T21:07:59.380Z,21.70
2018-08-12T21:10:28.088Z,21.60
2018-08-12T21:12:56.660Z,21.60
2018-08-12T21:15:25.270Z,21.50
2018-08-12T21:17:53.856Z,21.50
2018-08-12T21:20:22.407Z,21.50
2018-08-12T21:22:51.057Z,21.40
2018-08-12T21:25:19.976Z,21.30
2018-08-12T21:27:48.471Z,21.20
2018-08-12T21:30:16.936Z,21.10
2018-08-12T21:32:45.495Z,21.00
2018-08-12T21:35:14.023Z,21.00
2018-08-12T21:37:42.778Z,20.90
2018-08-12T21:40:11.310Z,20.90
2018-08-12T21:42:39.785Z,20.90
2018-08-12T21:45:08.438Z,20.80
2018-08-12T21:47:36.922Z,20.80
2018-08-12T21:50:05.862Z,20.70
2018-08-12T21:52:34.378Z,20.60
2018-08-12T21:55:02.826Z,20.60
2018-08-12T21:57:31.237Z,20.60
2018-08-12T21:59:59.690Z,20.60
2018-08-12T22:02:34.905Z,20.50
2018-08-12T22:05:03.470Z,20.50
2018-08-12T22:07:31.883Z,20.50
2018-08-12T22:10:00.337Z,20.40
2018-08-12T22:12:28.761Z,20.40
2018-08-12T22:14:57.216Z,20.30
2018-08-12T22:17:25.691Z,20.20
2018-08-12T22:19:54.612Z,20.20
2018-08-12T22:22:23.079Z,20.30
2018-08-12T22:24:51.594Z,20.30
2018-08-12T22:27:20.048Z,20.20
2018-08-12T22:29:48.538Z,20.20
2018-08-12T22:32:16.965Z,20.10
2018-08-12T22:34:45.562Z,20.10
2018-08-12T22:37:14.066Z,20.10
2018-08-12T22:39:42.569Z,20.00
2018-08-12T22:42:11.020Z,20.00
2018-08-12T22:44:39.689Z,19.90
2018-08-12T22:47:08.161Z,19.90
2018-08-12T22:49:36.653Z,19.90
2018-08-12T22:52:05.142Z,19.90
2018-08-12T22:54:33.709Z,19.90
2018-08-12T22:57:02.226Z,19.90
2018-08-12T22:59:30.813Z,19.90
2018-08-12T23:01:59.577Z,19.90
2018-08-12T23:04:28.010Z,19.90
2018-08-12T23:06:56.470Z,19.90
2018-08-12T23:09:31.401Z,19.90
2018-08-12T23:11:59.844Z,19.80
2018-08-12T23:14:28.274Z,19.80
2018-08-12T23:16:59.443Z,19.70
2018-08-12T23:19:28.399Z,19.60
2018-08-12T23:21:56.848Z,19.50
2018-08-12T23:24:25.282Z,19.40
2018-08-12T23:26:53.675Z,19.30
2018-08-12T23:29:22.128Z,19.30
2018-08-12T23:31:50.597Z,19.30
2018-08-12T23:34:19.148Z,19.30
2018-08-12T23:36:47.706Z,19.30
2018-08-12T23:39:16.244Z,19.30
2018-08-12T23:41:44.754Z,19.20
2018-08-12T23:44:13.238Z,19.20
2018-08-12T23:46:41.685Z,19.10
2018-08-12T23:49:10.400Z,19.10
2018-08-12T23:51:38.944Z,19.20
2018-08-12T23:54:07.380Z,19.00
2018-08-12T23:56:35.818Z,18.90
2018-08-12T23:59:04.681Z,18.90
